sensor_id;sensor_type;location;lat;lon;timestamp;temperature;humidity
61392;DHT22;47261;52.892;5.738;2022-10-23T00:00:01;12.70;96.70
61392;DHT22;47261;52.892;5.738;2022-10-23T00:02:28;12.70;96.80
61392;DHT22;47261;52.892;5.738;2022-10-23T00:04:53;12.80;96.80
61392;DHT22;47261;52.892;5.738;2022-10-23T00:07:19;12.80;96.80
61392;DHT22;47261;52.892;5.738;2022-10-23T00:09:44;12.80;96.80
61392;DHT22;47261;52.892;5.738;2022-10-23T00:12:10;12.80;96.80
61392;DHT22;47261;52.892;5.738;2022-10-23T00:14:36;12.80;96.80
61392;DHT22;47261;52.892;5.738;2022-10-23T00:17:02;12.80;96.80
61392;DHT22;47261;52.892;5.738;2022-10-23T00:19:27;12.80;96.80
61392;DHT22;47261;52.892;5.738;2022-10-23T00:21:53;12.80;96.80
61392;DHT22;47261;52.892;5.738;2022-10-23T00:24:19;12.80;96.80
61392;DHT22;47261;52.892;5.738;2022-10-23T00:26:44;12.80;96.90
61392;DHT22;47261;52.892;5.738;2022-10-23T00:29:10;12.80;96.80
61392;DHT22;47261;52.892;5.738;2022-10-23T00:31:37;12.80;96.80
61392;DHT22;47261;52.892;5.738;2022-10-23T00:34:03;12.70;96.80
61392;DHT22;47261;52.892;5.738;2022-10-23T00:36:32;12.80;96.80
61392;DHT22;47261;52.892;5.738;2022-10-23T00:38:58;12.70;96.80
61392;DHT22;47261;52.892;5.738;2022-10-23T00:41:27;12.70;96.80
61392;DHT22;47261;52.892;5.738;2022-10-23T00:43:57;12.70;96.80
61392;DHT22;47261;52.892;5.738;2022-10-23T00:46:23;12.70;96.80
61392;DHT22;47261;52.892;5.738;2022-10-23T00:48:49;12.70;96.80
61392;DHT22;47261;52.892;5.738;2022-10-23T00:51:14;12.70;96.80
61392;DHT22;47261;52.892;5.738;2022-10-23T00:53:42;12.70;96.80
61392;DHT22;47261;52.892;5.738;2022-10-23T00:56:08;12.60;96.80
61392;DHT22;47261;52.892;5.738;2022-10-23T00:58:34;12.60;96.80
61392;DHT22;47261;52.892;5.738;2022-10-23T01:01:00;12.60;96.80
61392;DHT22;47261;52.892;5.738;2022-10-23T01:03:27;12.60;96.80
61392;DHT22;47261;52.892;5.738;2022-10-23T01:06:04;12.60;96.80
61392;DHT22;47261;52.892;5.738;2022-10-23T01:08:46;12.60;96.80
61392;DHT22;47261;52.892;5.738;2022-10-23T01:11:42;12.50;96.80
61392;DHT22;47261;52.892;5.738;2022-10-23T01:14:42;12.60;96.90
61392;DHT22;47261;52.892;5.738;2022-10-23T01:27:39;12.50;96.90
61392;DHT22;47261;52.892;5.738;2022-10-23T01:30:08;12.50;96.90
61392;DHT22;47261;52.892;5.738;2022-10-23T01:32:44;12.50;97.00
61392;DHT22;47261;52.892;5.738;2022-10-23T01:35:35;12.50;97.00
61392;DHT22;47261;52.892;5.738;2022-10-23T01:38:12;12.50;97.10
61392;DHT22;47261;52.892;5.738;2022-10-23T01:40:59;12.50;97.00
61392;DHT22;47261;52.892;5.738;2022-10-23T01:43:51;12.50;97.30
61392;DHT22;47261;52.892;5.738;2022-10-23T01:46:18;12.50;97.10
61392;DHT22;47261;52.892;5.738;2022-10-23T01:48:50;12.50;97.10
61392;DHT22;47261;52.892;5.738;2022-10-23T01:51:18;12.50;97.10
61392;DHT22;47261;52.892;5.738;2022-10-23T01:53:45;12.40;97.30
61392;DHT22;47261;52.892;5.738;2022-10-23T01:56:16;12.50;97.10
61392;DHT22;47261;52.892;5.738;2022-10-23T01:58:45;12.40;97.10
61392;DHT22;47261;52.892;5.738;2022-10-23T02:01:12;12.40;97.10
61392;DHT22;47261;52.892;5.738;2022-10-23T02:03:41;12.40;97.10
61392;DHT22;47261;52.892;5.738;2022-10-23T02:06:07;12.40;97.10
61392;DHT22;47261;52.892;5.738;2022-10-23T02:08:33;12.40;97.10
61392;DHT22;47261;52.892;5.738;2022-10-23T02:11:08;12.40;97.10
61392;DHT22;47261;52.892;5.738;2022-10-23T02:13:44;12.40;97.10
61392;DHT22;47261;52.892;5.738;2022-10-23T02:16:58;12.40;97.10
61392;DHT22;47261;52.892;5.738;2022-10-23T02:19:10;12.30;97.10
61392;DHT22;47261;52.892;5.738;2022-10-23T02:21:58;12.30;97.10
61392;DHT22;47261;52.892;5.738;2022-10-23T02:24:41;12.30;97.10
61392;DHT22;47261;52.892;5.738;2022-10-23T02:27:11;12.30;97.10
61392;DHT22;47261;52.892;5.738;2022-10-23T02:29:47;12.30;97.10
61392;DHT22;47261;52.892;5.738;2022-10-23T02:32:14;12.30;97.10
61392;DHT22;47261;52.892;5.738;2022-10-23T02:34:42;12.30;97.20
61392;DHT22;47261;52.892;5.738;2022-10-23T02:37:07;12.30;97.10
61392;DHT22;47261;52.892;5.738;2022-10-23T02:39:33;12.30;97.20
61392;DHT22;47261;52.892;5.738;2022-10-23T02:42:05;12.30;97.20
61392;DHT22;47261;52.892;5.738;2022-10-23T02:53:10;12.40;97.30
61392;DHT22;47261;52.892;5.738;2022-10-23T03:01:10;12.40;97.30
61392;DHT22;47261;52.892;5.738;2022-10-23T03:03:41;12.50;97.30
61392;DHT22;47261;52.892;5.738;2022-10-23T03:06:09;12.50;97.30
61392;DHT22;47261;52.892;5.738;2022-10-23T03:08:43;12.50;97.40
61392;DHT22;47261;52.892;5.738;2022-10-23T03:11:08;12.50;97.40
61392;DHT22;47261;52.892;5.738;2022-10-23T03:13:34;12.50;97.30
61392;DHT22;47261;52.892;5.738;2022-10-23T03:15:59;12.60;97.40
61392;DHT22;47261;52.892;5.738;2022-10-23T03:18:25;12.60;97.40
61392;DHT22;47261;52.892;5.738;2022-10-23T03:20:51;12.60;97.40
61392;DHT22;47261;52.892;5.738;2022-10-23T03:23:16;12.60;97.40
61392;DHT22;47261;52.892;5.738;2022-10-23T03:25:42;12.60;97.40
61392;DHT22;47261;52.892;5.738;2022-10-23T03:28:08;12.60;97.40
61392;DHT22;47261;52.892;5.738;2022-10-23T03:30:33;12.60;97.40
61392;DHT22;47261;52.892;5.738;2022-10-23T03:32:59;12.60;97.40
61392;DHT22;47261;52.892;5.738;2022-10-23T03:35:24;12.60;97.40
61392;DHT22;47261;52.892;5.738;2022-10-23T03:37:50;12.60;97.40
61392;DHT22;47261;52.892;5.738;2022-10-23T03:40:15;12.60;97.40
61392;DHT22;47261;52.892;5.738;2022-10-23T03:42:41;12.70;97.40
61392;DHT22;47261;52.892;5.738;2022-10-23T03:45:07;12.60;97.40
61392;DHT22;47261;52.892;5.738;2022-10-23T03:47:33;12.70;97.40
61392;DHT22;47261;52.892;5.738;2022-10-23T03:50:00;12.70;97.40
61392;DHT22;47261;52.892;5.738;2022-10-23T03:52:26;12.70;97.40
61392;DHT22;47261;52.892;5.738;2022-10-23T03:54:52;12.70;97.40
61392;DHT22;47261;52.892;5.738;2022-10-23T03:57:17;12.70;97.40
61392;DHT22;47261;52.892;5.738;2022-10-23T03:59:43;12.70;97.40
61392;DHT22;47261;52.892;5.738;2022-10-23T04:02:09;12.60;97.40
61392;DHT22;47261;52.892;5.738;2022-10-23T04:04:35;12.60;97.30
61392;DHT22;47261;52.892;5.738;2022-10-23T04:07:00;12.60;97.30
61392;DHT22;47261;52.892;5.738;2022-10-23T04:09:26;12.60;97.30
61392;DHT22;47261;52.892;5.738;2022-10-23T04:11:51;12.60;97.30
61392;DHT22;47261;52.892;5.738;2022-10-23T04:14:19;12.60;97.30
61392;DHT22;47261;52.892;5.738;2022-10-23T04:16:45;12.60;97.30
61392;DHT22;47261;52.892;5.738;2022-10-23T04:19:10;12.60;97.30
61392;DHT22;47261;52.892;5.738;2022-10-23T04:21:36;12.50;97.30
61392;DHT22;47261;52.892;5.738;2022-10-23T04:24:02;12.50;97.30
61392;DHT22;47261;52.892;5.738;2022-10-23T04:26:28;12.50;97.30
61392;DHT22;47261;52.892;5.738;2022-10-23T04:28:53;12.50;97.30
61392;DHT22;47261;52.892;5.738;2022-10-23T04:31:19;12.50;97.30
61392;DHT22;47261;52.892;5.738;2022-10-23T04:33:45;12.50;97.30
61392;DHT22;47261;52.892;5.738;2022-10-23T04:36:10;12.50;97.30
61392;DHT22;47261;52.892;5.738;2022-10-23T04:38:36;12.50;97.30
61392;DHT22;47261;52.892;5.738;2022-10-23T04:41:01;12.50;97.30
61392;DHT22;47261;52.892;5.738;2022-10-23T04:43:27;12.50;97.30
61392;DHT22;47261;52.892;5.738;2022-10-23T04:45:53;12.40;97.30
61392;DHT22;47261;52.892;5.738;2022-10-23T04:48:18;12.50;97.40
61392;DHT22;47261;52.892;5.738;2022-10-23T04:50:56;12.40;97.40
61392;DHT22;47261;52.892;5.738;2022-10-23T04:53:22;12.40;97.40
61392;DHT22;47261;52.892;5.738;2022-10-23T04:55:53;12.50;97.30
61392;DHT22;47261;52.892;5.738;2022-10-23T04:58:19;12.40;97.30
61392;DHT22;47261;52.892;5.738;2022-10-23T05:00:45;12.40;97.30
61392;DHT22;47261;52.892;5.738;2022-10-23T05:03:11;12.40;97.30
61392;DHT22;47261;52.892;5.738;2022-10-23T05:05:37;12.40;97.40
61392;DHT22;47261;52.892;5.738;2022-10-23T05:08:02;12.40;97.40
61392;DHT22;47261;52.892;5.738;2022-10-23T05:10:28;12.40;97.40
61392;DHT22;47261;52.892;5.738;2022-10-23T05:12:54;12.40;97.40
61392;DHT22;47261;52.892;5.738;2022-10-23T05:15:20;12.40;97.50
61392;DHT22;47261;52.892;5.738;2022-10-23T05:17:47;12.40;97.50
61392;DHT22;47261;52.892;5.738;2022-10-23T05:20:19;12.40;97.50
61392;DHT22;47261;52.892;5.738;2022-10-23T05:22:46;12.40;97.50
61392;DHT22;47261;52.892;5.738;2022-10-23T05:25:14;12.40;97.50
61392;DHT22;47261;52.892;5.738;2022-10-23T05:27:40;12.40;97.60
61392;DHT22;47261;52.892;5.738;2022-10-23T05:30:06;12.40;97.60
61392;DHT22;47261;52.892;5.738;2022-10-23T05:32:33;12.40;97.60
61392;DHT22;47261;52.892;5.738;2022-10-23T05:35:00;12.40;97.60
61392;DHT22;47261;52.892;5.738;2022-10-23T05:37:30;12.30;97.50
61392;DHT22;47261;52.892;5.738;2022-10-23T05:39:56;12.40;97.50
61392;DHT22;47261;52.892;5.738;2022-10-23T05:42:21;12.30;97.50
61392;DHT22;47261;52.892;5.738;2022-10-23T05:44:47;12.30;97.60
61392;DHT22;47261;52.892;5.738;2022-10-23T05:47:12;12.30;97.60
61392;DHT22;47261;52.892;5.738;2022-10-23T05:49:38;12.30;97.50
61392;DHT22;47261;52.892;5.738;2022-10-23T05:52:03;12.30;97.50
61392;DHT22;47261;52.892;5.738;2022-10-23T05:54:29;12.30;97.50
61392;DHT22;47261;52.892;5.738;2022-10-23T05:56:55;12.20;97.50
61392;DHT22;47261;52.892;5.738;2022-10-23T05:59:21;12.20;97.50
61392;DHT22;47261;52.892;5.738;2022-10-23T06:01:46;12.20;97.50
61392;DHT22;47261;52.892;5.738;2022-10-23T06:04:12;12.20;97.60
61392;DHT22;47261;52.892;5.738;2022-10-23T06:06:38;12.20;97.60
61392;DHT22;47261;52.892;5.738;2022-10-23T06:09:03;12.20;97.60
61392;DHT22;47261;52.892;5.738;2022-10-23T06:11:29;12.20;97.60
61392;DHT22;47261;52.892;5.738;2022-10-23T06:13:55;12.20;97.60
61392;DHT22;47261;52.892;5.738;2022-10-23T06:16:22;12.20;97.60
61392;DHT22;47261;52.892;5.738;2022-10-23T06:18:49;12.20;97.60
61392;DHT22;47261;52.892;5.738;2022-10-23T06:21:16;12.20;97.60
61392;DHT22;47261;52.892;5.738;2022-10-23T06:23:43;12.20;97.60
61392;DHT22;47261;52.892;5.738;2022-10-23T06:26:10;12.20;97.70
61392;DHT22;47261;52.892;5.738;2022-10-23T06:28:37;12.20;97.60
61392;DHT22;47261;52.892;5.738;2022-10-23T06:31:11;12.20;97.70
61392;DHT22;47261;52.892;5.738;2022-10-23T06:33:37;12.20;97.70
61392;DHT22;47261;52.892;5.738;2022-10-23T06:36:03;12.20;97.70
61392;DHT22;47261;52.892;5.738;2022-10-23T06:38:30;12.30;97.70
61392;DHT22;47261;52.892;5.738;2022-10-23T06:41:01;12.30;97.70
61392;DHT22;47261;52.892;5.738;2022-10-23T06:43:27;12.40;97.70
61392;DHT22;47261;52.892;5.738;2022-10-23T06:45:52;12.40;97.70
61392;DHT22;47261;52.892;5.738;2022-10-23T06:48:18;12.40;97.70
61392;DHT22;47261;52.892;5.738;2022-10-23T06:50:44;12.50;97.80
61392;DHT22;47261;52.892;5.738;2022-10-23T06:53:10;12.50;97.80
61392;DHT22;47261;52.892;5.738;2022-10-23T06:55:37;12.60;97.80
61392;DHT22;47261;52.892;5.738;2022-10-23T06:58:06;12.60;97.80
61392;DHT22;47261;52.892;5.738;2022-10-23T07:00:36;12.60;98.00
61392;DHT22;47261;52.892;5.738;2022-10-23T07:03:02;12.70;97.80
61392;DHT22;47261;52.892;5.738;2022-10-23T07:05:27;12.70;97.80
61392;DHT22;47261;52.892;5.738;2022-10-23T07:07:53;12.80;97.80
61392;DHT22;47261;52.892;5.738;2022-10-23T07:10:19;12.80;97.80
61392;DHT22;47261;52.892;5.738;2022-10-23T07:12:44;12.80;97.80
61392;DHT22;47261;52.892;5.738;2022-10-23T07:15:12;12.80;97.80
61392;DHT22;47261;52.892;5.738;2022-10-23T07:17:37;12.90;97.90
61392;DHT22;47261;52.892;5.738;2022-10-23T07:20:03;12.90;97.90
61392;DHT22;47261;52.892;5.738;2022-10-23T07:22:29;12.90;97.90
61392;DHT22;47261;52.892;5.738;2022-10-23T07:24:54;13.00;97.80
61392;DHT22;47261;52.892;5.738;2022-10-23T07:27:20;13.00;97.80
61392;DHT22;47261;52.892;5.738;2022-10-23T07:29:49;13.10;97.80
61392;DHT22;47261;52.892;5.738;2022-10-23T07:32:15;13.10;97.80
61392;DHT22;47261;52.892;5.738;2022-10-23T07:34:40;13.10;97.70
61392;DHT22;47261;52.892;5.738;2022-10-23T07:37:06;13.10;97.80
61392;DHT22;47261;52.892;5.738;2022-10-23T07:39:32;13.20;97.80
61392;DHT22;47261;52.892;5.738;2022-10-23T07:41:57;13.20;97.80
61392;DHT22;47261;52.892;5.738;2022-10-23T07:44:23;13.20;97.70
61392;DHT22;47261;52.892;5.738;2022-10-23T07:46:49;13.20;97.70
61392;DHT22;47261;52.892;5.738;2022-10-23T07:49:14;13.30;97.70
61392;DHT22;47261;52.892;5.738;2022-10-23T07:51:40;13.30;97.70
61392;DHT22;47261;52.892;5.738;2022-10-23T07:54:06;13.30;97.90
61392;DHT22;47261;52.892;5.738;2022-10-23T07:56:32;13.40;97.70
61392;DHT22;47261;52.892;5.738;2022-10-23T07:58:58;13.40;97.70
61392;DHT22;47261;52.892;5.738;2022-10-23T08:01:31;13.40;97.70
61392;DHT22;47261;52.892;5.738;2022-10-23T08:03:58;13.50;97.70
61392;DHT22;47261;52.892;5.738;2022-10-23T08:06:24;13.50;97.70
61392;DHT22;47261;52.892;5.738;2022-10-23T08:08:50;13.60;97.70
61392;DHT22;47261;52.892;5.738;2022-10-23T08:11:17;13.60;97.70
61392;DHT22;47261;52.892;5.738;2022-10-23T08:13:49;13.70;97.70
61392;DHT22;47261;52.892;5.738;2022-10-23T08:16:15;13.70;97.70
61392;DHT22;47261;52.892;5.738;2022-10-23T08:18:40;13.80;97.70
61392;DHT22;47261;52.892;5.738;2022-10-23T08:21:08;13.80;97.70
61392;DHT22;47261;52.892;5.738;2022-10-23T08:23:34;13.90;97.70
61392;DHT22;47261;52.892;5.738;2022-10-23T08:26:01;14.00;97.70
61392;DHT22;47261;52.892;5.738;2022-10-23T08:28:28;14.00;97.60
61392;DHT22;47261;52.892;5.738;2022-10-23T08:30:53;14.10;97.60
61392;DHT22;47261;52.892;5.738;2022-10-23T08:33:20;14.10;97.60
61392;DHT22;47261;52.892;5.738;2022-10-23T08:35:46;14.20;97.60
61392;DHT22;47261;52.892;5.738;2022-10-23T08:38:11;14.20;97.50
61392;DHT22;47261;52.892;5.738;2022-10-23T08:40:38;14.30;97.60
61392;DHT22;47261;52.892;5.738;2022-10-23T08:43:18;14.30;97.50
61392;DHT22;47261;52.892;5.738;2022-10-23T08:45:48;14.30;97.50
61392;DHT22;47261;52.892;5.738;2022-10-23T08:51:17;14.40;97.50
61392;DHT22;47261;52.892;5.738;2022-10-23T08:53:51;14.50;97.40
61392;DHT22;47261;52.892;5.738;2022-10-23T09:04:34;14.70;97.50
61392;DHT22;47261;52.892;5.738;2022-10-23T09:09:53;14.80;97.40
61392;DHT22;47261;52.892;5.738;2022-10-23T09:12:22;14.80;97.40
61392;DHT22;47261;52.892;5.738;2022-10-23T09:17:27;15.00;97.30
61392;DHT22;47261;52.892;5.738;2022-10-23T09:19:59;15.00;97.30
61392;DHT22;47261;52.892;5.738;2022-10-23T09:22:27;15.10;97.30
61392;DHT22;47261;52.892;5.738;2022-10-23T09:24:53;15.20;97.20
61392;DHT22;47261;52.892;5.738;2022-10-23T09:27:18;15.30;97.20
61392;DHT22;47261;52.892;5.738;2022-10-23T09:29:53;15.30;97.10
61392;DHT22;47261;52.892;5.738;2022-10-23T09:32:19;15.30;97.00
61392;DHT22;47261;52.892;5.738;2022-10-23T09:34:56;15.40;97.00
61392;DHT22;47261;52.892;5.738;2022-10-23T09:37:25;15.40;96.90
61392;DHT22;47261;52.892;5.738;2022-10-23T09:40:31;15.40;96.90
61392;DHT22;47261;52.892;5.738;2022-10-23T09:43:03;15.50;96.90
61392;DHT22;47261;52.892;5.738;2022-10-23T09:45:31;15.60;96.90
61392;DHT22;47261;52.892;5.738;2022-10-23T09:48:13;15.60;96.90
61392;DHT22;47261;52.892;5.738;2022-10-23T09:50:55;15.60;96.90
61392;DHT22;47261;52.892;5.738;2022-10-23T09:53:45;15.60;96.90
61392;DHT22;47261;52.892;5.738;2022-10-23T09:59:03;15.60;96.80
61392;DHT22;47261;52.892;5.738;2022-10-23T10:01:34;15.70;96.80
61392;DHT22;47261;52.892;5.738;2022-10-23T10:04:09;15.70;96.80
61392;DHT22;47261;52.892;5.738;2022-10-23T10:06:35;15.80;96.80
61392;DHT22;47261;52.892;5.738;2022-10-23T10:09:15;15.80;96.70
61392;DHT22;47261;52.892;5.738;2022-10-23T10:12:21;15.90;96.70
61392;DHT22;47261;52.892;5.738;2022-10-23T10:17:51;15.90;96.60
61392;DHT22;47261;52.892;5.738;2022-10-23T10:23:31;16.00;96.50
61392;DHT22;47261;52.892;5.738;2022-10-23T10:37:16;16.30;96.30
61392;DHT22;47261;52.892;5.738;2022-10-23T10:45:33;16.40;96.30
61392;DHT22;47261;52.892;5.738;2022-10-23T10:51:05;16.40;96.20
61392;DHT22;47261;52.892;5.738;2022-10-23T10:56:01;16.40;96.20
61392;DHT22;47261;52.892;5.738;2022-10-23T10:58:39;16.40;96.20
61392;DHT22;47261;52.892;5.738;2022-10-23T11:01:27;16.30;96.10
61392;DHT22;47261;52.892;5.738;2022-10-23T11:03:58;16.30;96.10
61392;DHT22;47261;52.892;5.738;2022-10-23T11:06:28;16.30;96.10
61392;DHT22;47261;52.892;5.738;2022-10-23T11:08:57;16.20;96.10
61392;DHT22;47261;52.892;5.738;2022-10-23T11:11:35;16.20;96.10
61392;DHT22;47261;52.892;5.738;2022-10-23T11:14:01;16.10;96.10
61392;DHT22;47261;52.892;5.738;2022-10-23T11:16:36;16.10;96.10
61392;DHT22;47261;52.892;5.738;2022-10-23T11:19:21;16.10;96.10
61392;DHT22;47261;52.892;5.738;2022-10-23T11:22:07;16.00;96.10
61392;DHT22;47261;52.892;5.738;2022-10-23T11:30:40;15.90;96.00
61392;DHT22;47261;52.892;5.738;2022-10-23T11:36:18;15.90;95.90
61392;DHT22;47261;52.892;5.738;2022-10-23T11:38:47;15.90;95.90
61392;DHT22;47261;52.892;5.738;2022-10-23T11:41:25;16.00;95.90
61392;DHT22;47261;52.892;5.738;2022-10-23T11:43:55;16.10;95.90
61392;DHT22;47261;52.892;5.738;2022-10-23T11:48:50;16.10;95.90
61392;DHT22;47261;52.892;5.738;2022-10-23T11:51:34;16.10;95.80
61392;DHT22;47261;52.892;5.738;2022-10-23T11:56:36;16.20;95.80
61392;DHT22;47261;52.892;5.738;2022-10-23T11:59:30;16.20;95.80
61392;DHT22;47261;52.892;5.738;2022-10-23T12:01:59;16.20;95.80
61392;DHT22;47261;52.892;5.738;2022-10-23T12:04:35;16.30;95.80
61392;DHT22;47261;52.892;5.738;2022-10-23T12:07:24;16.20;95.80
61392;DHT22;47261;52.892;5.738;2022-10-23T12:09:54;16.30;95.80
61392;DHT22;47261;52.892;5.738;2022-10-23T12:12:36;16.20;95.80
61392;DHT22;47261;52.892;5.738;2022-10-23T12:15:16;16.30;95.90
61392;DHT22;47261;52.892;5.738;2022-10-23T12:17:44;16.30;95.80
61392;DHT22;47261;52.892;5.738;2022-10-23T12:23:22;16.30;95.80
61392;DHT22;47261;52.892;5.738;2022-10-23T12:29:44;16.30;95.80
61392;DHT22;47261;52.892;5.738;2022-10-23T12:32:47;16.30;95.80
61392;DHT22;47261;52.892;5.738;2022-10-23T12:38:24;16.30;95.70
61392;DHT22;47261;52.892;5.738;2022-10-23T12:40:53;16.30;95.70
61392;DHT22;47261;52.892;5.738;2022-10-23T12:43:25;16.30;95.70
61392;DHT22;47261;52.892;5.738;2022-10-23T12:45:53;16.30;95.70
61392;DHT22;47261;52.892;5.738;2022-10-23T12:48:21;16.30;95.70
61392;DHT22;47261;52.892;5.738;2022-10-23T12:50:50;16.30;95.70
61392;DHT22;47261;52.892;5.738;2022-10-23T12:53:18;16.30;95.60
61392;DHT22;47261;52.892;5.738;2022-10-23T12:58:27;16.40;95.60
61392;DHT22;47261;52.892;5.738;2022-10-23T13:01:00;16.40;95.60
61392;DHT22;47261;52.892;5.738;2022-10-23T13:03:28;16.40;95.60
61392;DHT22;47261;52.892;5.738;2022-10-23T13:05:56;16.40;95.50
61392;DHT22;47261;52.892;5.738;2022-10-23T13:08:46;16.50;95.50
61392;DHT22;47261;52.892;5.738;2022-10-23T13:11:15;16.50;95.40
61392;DHT22;47261;52.892;5.738;2022-10-23T13:13:43;16.60;95.40
61392;DHT22;47261;52.892;5.738;2022-10-23T13:16:25;16.60;95.30
61392;DHT22;47261;52.892;5.738;2022-10-23T13:18:51;16.60;95.10
61392;DHT22;47261;52.892;5.738;2022-10-23T13:21:26;16.70;95.10
61392;DHT22;47261;52.892;5.738;2022-10-23T13:23:53;16.70;95.10
61392;DHT22;47261;52.892;5.738;2022-10-23T13:26:32;16.70;95.00
61392;DHT22;47261;52.892;5.738;2022-10-23T13:28:59;16.80;95.20
61392;DHT22;47261;52.892;5.738;2022-10-23T13:31:30;16.80;94.90
61392;DHT22;47261;52.892;5.738;2022-10-23T13:36:29;16.80;94.80
61392;DHT22;47261;52.892;5.738;2022-10-23T13:39:00;16.90;94.80
61392;DHT22;47261;52.892;5.738;2022-10-23T13:41:38;16.90;94.80
61392;DHT22;47261;52.892;5.738;2022-10-23T13:44:04;16.90;94.70
61392;DHT22;47261;52.892;5.738;2022-10-23T13:46:30;16.90;94.70
61392;DHT22;47261;52.892;5.738;2022-10-23T13:48:56;16.90;94.60
61392;DHT22;47261;52.892;5.738;2022-10-23T13:51:29;16.90;94.50
61392;DHT22;47261;52.892;5.738;2022-10-23T13:53:55;17.00;94.50
61392;DHT22;47261;52.892;5.738;2022-10-23T13:56:24;17.00;94.40
61392;DHT22;47261;52.892;5.738;2022-10-23T13:58:50;17.00;94.30
61392;DHT22;47261;52.892;5.738;2022-10-23T14:01:27;17.00;94.30
61392;DHT22;47261;52.892;5.738;2022-10-23T14:03:54;17.10;94.30
61392;DHT22;47261;52.892;5.738;2022-10-23T14:06:20;17.10;94.30
61392;DHT22;47261;52.892;5.738;2022-10-23T14:08:46;17.10;94.30
61392;DHT22;47261;52.892;5.738;2022-10-23T14:11:13;17.10;94.30
61392;DHT22;47261;52.892;5.738;2022-10-23T14:13:39;17.10;94.20
61392;DHT22;47261;52.892;5.738;2022-10-23T14:16:06;17.10;94.20
61392;DHT22;47261;52.892;5.738;2022-10-23T14:18:33;17.10;94.20
61392;DHT22;47261;52.892;5.738;2022-10-23T14:21:00;17.20;94.20
61392;DHT22;47261;52.892;5.738;2022-10-23T14:23:25;17.20;94.10
61392;DHT22;47261;52.892;5.738;2022-10-23T14:25:51;17.20;94.10
61392;DHT22;47261;52.892;5.738;2022-10-23T14:28:17;17.30;94.10
61392;DHT22;47261;52.892;5.738;2022-10-23T14:30:42;17.30;94.00
61392;DHT22;47261;52.892;5.738;2022-10-23T14:33:08;17.30;93.90
61392;DHT22;47261;52.892;5.738;2022-10-23T14:35:38;17.30;93.90
61392;DHT22;47261;52.892;5.738;2022-10-23T14:38:04;17.30;93.80
61392;DHT22;47261;52.892;5.738;2022-10-23T14:40:30;17.30;93.70
61392;DHT22;47261;52.892;5.738;2022-10-23T14:42:55;17.30;93.70
61392;DHT22;47261;52.892;5.738;2022-10-23T14:45:21;17.30;93.60
61392;DHT22;47261;52.892;5.738;2022-10-23T14:47:47;17.30;93.60
61392;DHT22;47261;52.892;5.738;2022-10-23T14:50:13;17.30;93.60
61392;DHT22;47261;52.892;5.738;2022-10-23T14:52:39;17.40;93.70
61392;DHT22;47261;52.892;5.738;2022-10-23T14:55:05;17.40;93.60
61392;DHT22;47261;52.892;5.738;2022-10-23T14:57:30;17.40;93.60
61392;DHT22;47261;52.892;5.738;2022-10-23T14:59:56;17.40;93.50
61392;DHT22;47261;52.892;5.738;2022-10-23T15:02:22;17.50;93.50
61392;DHT22;47261;52.892;5.738;2022-10-23T15:04:47;17.50;93.60
61392;DHT22;47261;52.892;5.738;2022-10-23T15:07:13;17.50;93.60
61392;DHT22;47261;52.892;5.738;2022-10-23T15:09:38;17.50;93.50
61392;DHT22;47261;52.892;5.738;2022-10-23T15:12:05;17.50;93.50
61392;DHT22;47261;52.892;5.738;2022-10-23T15:14:31;17.50;93.50
61392;DHT22;47261;52.892;5.738;2022-10-23T15:16:57;17.50;93.50
61392;DHT22;47261;52.892;5.738;2022-10-23T15:19:23;17.50;93.50
61392;DHT22;47261;52.892;5.738;2022-10-23T15:21:48;17.50;93.50
61392;DHT22;47261;52.892;5.738;2022-10-23T15:24:15;17.50;93.50
61392;DHT22;47261;52.892;5.738;2022-10-23T15:26:41;17.40;93.50
61392;DHT22;47261;52.892;5.738;2022-10-23T15:29:08;17.30;93.50
61392;DHT22;47261;52.892;5.738;2022-10-23T15:34:06;17.30;93.60
61392;DHT22;47261;52.892;5.738;2022-10-23T15:36:33;17.20;93.70
61392;DHT22;47261;52.892;5.738;2022-10-23T15:38:59;17.20;93.80
61392;DHT22;47261;52.892;5.738;2022-10-23T15:41:29;17.10;93.80
61392;DHT22;47261;52.892;5.738;2022-10-23T15:43:56;17.10;93.90
61392;DHT22;47261;52.892;5.738;2022-10-23T15:46:22;17.10;94.00
61392;DHT22;47261;52.892;5.738;2022-10-23T15:48:48;17.10;94.00
61392;DHT22;47261;52.892;5.738;2022-10-23T15:51:13;17.00;94.00
61392;DHT22;47261;52.892;5.738;2022-10-23T15:53:39;17.00;94.00
61392;DHT22;47261;52.892;5.738;2022-10-23T15:56:05;17.00;94.10
61392;DHT22;47261;52.892;5.738;2022-10-23T15:58:30;16.90;94.10
61392;DHT22;47261;52.892;5.738;2022-10-23T16:00:56;16.90;94.10
61392;DHT22;47261;52.892;5.738;2022-10-23T16:03:21;16.90;94.20
61392;DHT22;47261;52.892;5.738;2022-10-23T16:05:47;16.80;94.20
61392;DHT22;47261;52.892;5.738;2022-10-23T16:08:13;16.80;94.30
61392;DHT22;47261;52.892;5.738;2022-10-23T16:10:39;16.80;94.30
61392;DHT22;47261;52.892;5.738;2022-10-23T16:13:05;16.70;94.40
61392;DHT22;47261;52.892;5.738;2022-10-23T16:15:34;16.70;94.40
61392;DHT22;47261;52.892;5.738;2022-10-23T16:18:00;16.70;94.50
61392;DHT22;47261;52.892;5.738;2022-10-23T16:20:26;16.70;94.60
61392;DHT22;47261;52.892;5.738;2022-10-23T16:22:51;16.70;94.60
61392;DHT22;47261;52.892;5.738;2022-10-23T16:25:17;16.70;94.60
61392;DHT22;47261;52.892;5.738;2022-10-23T16:27:43;16.70;94.60
61392;DHT22;47261;52.892;5.738;2022-10-23T16:30:09;16.70;94.60
61392;DHT22;47261;52.892;5.738;2022-10-23T16:32:38;16.70;94.60
61392;DHT22;47261;52.892;5.738;2022-10-23T16:35:04;16.60;94.50
61392;DHT22;47261;52.892;5.738;2022-10-23T16:37:30;16.70;94.60
61392;DHT22;47261;52.892;5.738;2022-10-23T16:39:55;16.60;94.50
61392;DHT22;47261;52.892;5.738;2022-10-23T16:42:21;16.60;94.50
61392;DHT22;47261;52.892;5.738;2022-10-23T16:44:47;16.60;94.60
61392;DHT22;47261;52.892;5.738;2022-10-23T16:47:13;16.60;94.60
61392;DHT22;47261;52.892;5.738;2022-10-23T16:49:39;16.60;94.70
61392;DHT22;47261;52.892;5.738;2022-10-23T16:52:04;16.60;94.60
61392;DHT22;47261;52.892;5.738;2022-10-23T16:54:30;16.50;94.60
61392;DHT22;47261;52.892;5.738;2022-10-23T16:56:55;16.50;94.70
61392;DHT22;47261;52.892;5.738;2022-10-23T16:59:21;16.50;94.70
61392;DHT22;47261;52.892;5.738;2022-10-23T17:01:47;16.50;94.70
61392;DHT22;47261;52.892;5.738;2022-10-23T17:04:12;16.50;94.80
61392;DHT22;47261;52.892;5.738;2022-10-23T17:06:38;16.50;94.80
61392;DHT22;47261;52.892;5.738;2022-10-23T17:09:04;16.40;94.80
61392;DHT22;47261;52.892;5.738;2022-10-23T17:11:33;16.50;94.80
61392;DHT22;47261;52.892;5.738;2022-10-23T17:14:09;16.40;94.80
61392;DHT22;47261;52.892;5.738;2022-10-23T17:16:42;16.40;94.80
61392;DHT22;47261;52.892;5.738;2022-10-23T17:19:09;16.40;94.80
61392;DHT22;47261;52.892;5.738;2022-10-23T17:21:39;16.30;94.80
61392;DHT22;47261;52.892;5.738;2022-10-23T17:24:05;16.30;94.90